Time;durP1;ratioP1;P1;durP2;ratioP2;P2;SDS_P1;SDS_P2;PMS_P1;PMS_P2;Temp;Humidity;BMP_temperature;BMP_pressure;BME280_temperature;BME280_humidity;BME280_pressure;Samples;Min_cycle;Max_cycle;Signal;HPM_P1;HPM_P2
2023/02/03 00:01:33;;;;;;;45.53;19.13;;;6.80;99.90;;;5.35;100.00;101079.72;5005069;28;20037;-76
2023/02/03 00:03:58;;;;;;;48.38;20.05;;;6.90;99.90;;;5.45;100.00;101076.81;5003110;28;20049;-76
2023/02/03 00:06:24;;;;;;;48.70;19.98;;;6.90;99.90;;;5.53;100.00;101084.91;5004745;28;20034;-76
2023/02/03 00:08:58;;;;;;;48.95;21.48;;;7.10;99.90;;;5.64;100.00;101082.88;5009496;28;20543;-76
2023/02/03 00:11:28;;;;;;;56.13;23.25;;;7.20;99.90;;;5.72;100.00;101077.44;5008775;28;20040;-77
2023/02/03 00:13:54;;;;;;;53.95;22.95;;;7.20;99.90;;;5.71;100.00;101068.47;4992565;28;20029;-76
2023/02/03 00:16:20;;;;;;;58.35;24.50;;;7.30;99.90;;;5.73;100.00;101069.16;5007616;28;20387;-75
2023/02/03 00:18:46;;;;;;;50.55;24.17;;;7.30;99.90;;;5.75;100.00;101061.69;5010337;28;20045;-77
2023/02/03 00:21:13;;;;;;;53.30;24.55;;;7.30;99.90;;;5.81;100.00;101075.53;5009152;28;20038;-77
2023/02/03 00:23:40;;;;;;;51.97;25.95;;;7.30;99.90;;;5.86;100.00;101070.44;5003562;28;20040;-76
2023/02/03 00:26:14;;;;;;;54.13;26.02;;;7.40;99.90;;;5.82;100.00;101069.94;4998078;28;20042;-76
2023/02/03 00:28:42;;;;;;;52.70;25.40;;;7.40;99.90;;;5.88;100.00;101066.56;5008452;28;20028;-76
2023/02/03 00:31:20;;;;;;;57.25;26.42;;;7.40;99.90;;;5.86;100.00;101063.19;5008657;28;20556;-76
2023/02/03 00:33:47;;;;;;;;;;;7.40;99.90;;;5.90;100.00;101053.69;4992742;28;20110;-76
2023/02/03 00:36:13;;;;;;;49.78;26.33;;;7.50;99.90;;;5.92;100.00;101063.50;5009773;28;19921;-76
2023/02/03 00:38:39;;;;;;;51.78;24.75;;;7.40;99.90;;;5.92;100.00;101066.19;5017425;28;20034;-76
2023/02/03 00:41:06;;;;;;;50.75;25.50;;;7.50;99.90;;;5.95;100.00;101072.09;5008299;28;20034;-76
2023/02/03 00:43:32;;;;;;;44.08;25.17;;;7.50;99.90;;;6.00;100.00;101079.69;5009578;28;20165;-76
2023/02/03 00:45:58;;;;;;;44.40;24.95;;;7.50;99.90;;;6.03;100.00;101087.50;5001506;28;20506;-76
2023/02/03 00:48:23;;;;;;;46.13;24.48;;;7.60;99.90;;;6.08;100.00;101079.69;4998743;28;20034;-76
2023/02/03 00:50:49;;;;;;;42.10;23.67;;;7.60;99.90;;;6.08;100.00;101084.28;4993912;28;20425;-76
2023/02/03 00:53:15;;;;;;;35.88;21.98;;;7.60;99.90;;;6.14;100.00;101092.53;5005411;28;20053;-76
2023/02/03 00:55:42;;;;;;;39.22;22.10;;;7.70;99.90;;;6.11;100.00;101081.19;5003330;28;20088;-75
2023/02/03 00:58:09;;;;;;;34.53;21.13;;;7.60;99.90;;;6.15;100.00;101075.25;5013037;28;20026;-75
2023/02/03 01:00:36;;;;;;;40.10;22.05;;;7.70;99.90;;;6.24;100.00;101084.19;5017685;28;20038;-75
2023/02/03 01:03:03;;;;;;;30.95;20.15;;;7.70;99.90;;;6.24;100.00;101094.19;4996004;28;20056;-76
2023/02/03 01:05:28;;;;;;;35.13;19.55;;;7.80;99.90;;;6.19;100.00;101100.97;4993977;28;20040;-75
2023/02/03 01:07:54;;;;;;;33.60;20.15;;;7.70;99.90;;;6.22;100.00;101098.94;5005317;28;20033;-76
2023/02/03 01:10:20;;;;;;;35.60;20.05;;;7.80;99.90;;;6.18;100.00;101102.00;5009793;28;20037;-76
2023/02/03 01:12:45;;;;;;;35.28;20.33;;;7.70;99.90;;;6.22;100.00;101101.66;5009402;28;20030;-76
2023/02/03 01:15:11;;;;;;;32.38;19.27;;;7.70;99.90;;;6.25;100.00;101093.16;5011329;28;20034;-76
2023/02/03 01:17:37;;;;;;;33.67;19.08;;;7.80;99.90;;;6.28;100.00;101099.06;5017859;28;20030;-76
2023/02/03 01:20:04;;;;;;;33.95;18.48;;;7.80;99.90;;;6.28;100.00;101104.50;5011397;28;20409;-76
2023/02/03 01:22:30;;;;;;;30.27;18.92;;;7.80;99.90;;;6.26;100.00;101097.56;5012027;28;20125;-76
2023/02/03 01:24:56;;;;;;;32.40;18.30;;;7.80;99.90;;;6.31;100.00;101109.56;5004535;28;20402;-76
2023/02/03 01:27:22;;;;;;;28.60;18.48;;;7.80;99.90;;;6.31;100.00;101128.53;5012016;28;20038;-75
2023/02/03 01:29:48;;;;;;;28.48;17.42;;;7.80;99.90;;;6.32;100.00;101104.97;5005412;28;20128;-76
2023/02/03 01:32:14;;;;;;;29.17;17.52;;;7.80;99.90;;;6.28;100.00;101106.34;5000293;28;20038;-76
2023/02/03 01:34:39;;;;;;;26.80;16.80;;;7.80;99.90;;;6.33;100.00;101103.94;5001639;28;20042;-75
2023/02/03 01:37:05;;;;;;;26.02;16.58;;;7.80;99.90;;;6.34;100.00;101121.88;5018837;28;20034;-76
2023/02/03 01:39:31;;;;;;;28.17;16.58;;;7.80;99.90;;;6.36;100.00;101111.72;5010309;28;20060;-76
2023/02/03 01:41:56;;;;;;;27.77;17.08;;;7.90;99.90;;;6.30;100.00;101101.59;4999712;28;20038;-76
2023/02/03 01:44:51;;;;;;;27.80;17.85;;;7.90;99.90;;;6.36;100.00;101121.72;5010942;28;20039;-75
2023/02/03 01:47:32;;;;;;;29.10;17.25;;;7.90;99.90;;;6.38;100.00;101120.53;5006466;28;20057;-75
2023/02/03 01:50:20;;;;;;;29.02;16.70;;;7.90;99.90;;;6.36;100.00;101106.28;5021279;28;20061;-74
2023/02/03 01:52:56;;;;;;;26.23;16.08;;;7.90;99.90;;;6.35;100.00;101120.88;4994720;28;20170;-74
2023/02/03 01:55:30;;;;;;;24.08;16.42;;;7.80;99.90;;;6.29;100.00;101106.19;5002523;28;20103;-75
2023/02/03 01:58:22;;;;;;;24.77;16.40;;;7.90;99.90;;;6.30;100.00;101097.03;5024368;28;20209;-75
2023/02/03 02:00:49;;;;;;;27.13;16.98;;;7.80;99.90;;;6.12;100.00;101067.50;4995954;28;20056;-76
2023/02/03 02:03:19;;;;;;;24.40;15.73;;;7.80;99.90;;;6.38;100.00;101077.19;5009238;28;20036;-76
2023/02/03 02:05:55;;;;;;;23.30;15.82;;;7.90;99.90;;;6.45;100.00;101088.97;5012416;28;20824;-75
2023/02/03 02:08:22;;;;;;;21.55;14.00;;;8.00;99.90;;;6.42;100.00;101072.22;5005465;28;20026;-75
2023/02/03 02:10:49;;;;;;;;;;;8.00;99.90;;;6.51;100.00;101073.88;5006407;28;20034;-75
2023/02/03 02:13:18;;;;;;;22.63;13.18;;;8.10;99.90;;;6.51;100.00;101064.88;5011586;28;19926;-75
2023/02/03 02:15:53;;;;;;;19.58;12.95;;;8.10;99.90;;;6.56;100.00;101070.59;5010149;28;20054;-76
2023/02/03 02:18:25;;;;;;;18.88;11.63;;;8.10;99.90;;;6.60;100.00;101069.22;5001171;28;20037;-75
2023/02/03 02:21:40;;;;;;;20.83;11.57;;;8.10;99.90;;;6.64;100.00;101048.88;5005810;28;20046;-75
2023/02/03 02:24:37;;;;;;;25.52;12.65;;;8.20;99.90;;;6.65;100.00;101058.69;5002094;28;20042;-75
2023/02/03 02:27:35;;;;;;;16.38;11.30;;;8.20;99.90;;;6.67;100.00;101059.38;5004934;28;20046;-75
2023/02/03 02:30:47;;;;;;;17.48;10.38;;;8.20;99.90;;;6.70;100.00;101026.47;5012515;28;20117;-74
2023/02/03 02:33:33;;;;;;;15.65;9.50;;;8.30;99.90;;;6.69;100.00;101008.50;5007912;28;20048;-75
2023/02/03 02:36:50;;;;;;;15.52;10.23;;;8.30;99.90;;;6.77;100.00;101021.16;4994806;28;20373;-75
2023/02/03 02:39:38;;;;;;;16.52;9.43;;;8.30;99.90;;;6.74;100.00;101002.50;4988005;28;20043;-75
2023/02/03 02:42:33;;;;;;;14.02;8.60;;;8.30;99.90;;;6.72;100.00;101032.53;4995649;28;20037;-75
2023/02/03 02:45:13;;;;;;;19.33;9.10;;;8.30;99.90;;;6.74;100.00;101049.47;5024150;28;20042;-76
2023/02/03 02:47:39;;;;;;;12.30;8.43;;;8.30;99.90;;;6.74;100.00;101035.91;4994082;28;20033;-76
2023/02/03 02:50:25;;;;;;;14.02;8.85;;;8.30;99.90;;;6.79;100.00;101029.09;4994121;28;20026;-76
2023/02/03 02:52:53;;;;;;;13.35;8.63;;;8.30;99.90;;;6.85;100.00;101036.50;5010709;28;20379;-75
2023/02/03 02:55:23;;;;;;;;;;;8.40;99.90;;;6.88;100.00;101028.84;5011555;28;20026;-75
2023/02/03 02:57:56;;;;;;;15.18;8.10;;;8.40;99.90;;;6.82;100.00;100996.19;4996707;28;19924;-76
2023/02/03 03:00:22;;;;;;;14.77;7.85;;;8.40;99.90;;;6.99;100.00;101002.28;5008991;28;20433;-75
2023/02/03 03:02:48;;;;;;;15.45;8.88;;;8.40;99.90;;;6.97;100.00;100988.94;5017357;28;20096;-75
2023/02/03 03:05:17;;;;;;;13.00;8.07;;;8.50;99.90;;;6.99;100.00;100991.44;5009039;28;20029;-76
2023/02/03 03:08:01;;;;;;;13.20;7.55;;;8.50;99.90;;;6.98;100.00;100985.19;4997926;28;20654;-76
2023/02/03 03:10:31;;;;;;;11.80;7.68;;;8.50;99.90;;;6.96;100.00;100992.66;5010259;28;20034;-76
2023/02/03 03:13:06;;;;;;;12.65;7.85;;;8.50;99.90;;;6.98;100.00;101023.16;5010789;28;20034;-76
2023/02/03 03:15:34;;;;;;;13.52;7.80;;;8.50;99.90;;;7.02;100.00;100988.34;4990653;28;20032;-76
2023/02/03 03:18:16;;;;;;;;;;;8.50;99.90;;;7.01;100.00;101036.34;5007802;28;20048;-75
2023/02/03 03:20:46;;;;;;;13.15;7.72;;;8.50;99.90;;;7.06;100.00;101008.69;5011208;28;19917;-74
2023/02/03 03:23:28;;;;;;;12.95;7.95;;;8.60;99.90;;;7.02;100.00;101020.91;5011452;28;20041;-76
2023/02/03 03:26:20;;;;;;;11.25;6.93;;;8.60;99.90;;;7.08;100.00;101011.19;5006548;28;20473;-75
2023/02/03 03:28:57;;;;;;;11.23;7.10;;;8.60;99.90;;;7.04;100.00;101011.56;5009384;28;20493;-75
2023/02/03 03:31:23;;;;;;;10.82;7.60;;;8.60;99.90;;;7.05;100.00;100996.16;5007503;28;20116;-74
2023/02/03 03:33:49;;;;;;;15.20;7.72;;;8.60;99.90;;;7.05;100.00;100964.41;5010116;28;20454;-75
2023/02/03 03:36:27;;;;;;;17.27;8.18;;;8.60;99.90;;;7.08;100.00;100994.91;5009284;28;20113;-75
2023/02/03 03:39:25;;;;;;;14.73;7.95;;;8.60;99.90;;;7.04;100.00;100973.59;4987526;28;20038;-75
2023/02/03 03:42:19;;;;;;;17.25;7.30;;;8.60;99.90;;;7.04;100.00;100965.44;5014260;28;20133;-75
2023/02/03 03:45:02;;;;;;;11.90;7.45;;;8.60;99.90;;;7.08;100.00;100968.66;5009023;28;20056;-74
2023/02/03 03:47:55;;;;;;;11.20;7.07;;;8.60;99.90;;;7.03;100.00;100990.06;5007981;28;20041;-75
2023/02/03 03:50:28;;;;;;;12.38;6.68;;;8.60;99.90;;;7.05;100.00;100963.59;5006552;28;20116;-74
2023/02/03 03:52:57;;;;;;;11.43;7.13;;;8.60;99.90;;;7.03;100.00;100954.81;5005343;28;20038;-76
2023/02/03 03:55:28;;;;;;;11.45;6.63;;;8.60;99.90;;;7.06;100.00;100984.25;4996945;28;20087;-75
2023/02/03 03:58:02;;;;;;;10.85;6.57;;;8.60;99.90;;;7.05;100.00;100953.56;4999726;28;20363;-75
2023/02/03 04:00:32;;;;;;;11.60;5.97;;;8.60;99.90;;;7.08;100.00;100951.50;5009055;28;20037;-76
2023/02/03 04:03:05;;;;;;;10.52;6.13;;;8.60;99.90;;;7.11;100.00;100948.41;5010080;28;20041;-75
2023/02/03 04:05:33;;;;;;;10.63;5.95;;;8.60;99.90;;;7.12;100.00;100952.81;5006307;28;20449;-75
2023/02/03 04:07:59;;;;;;;10.20;5.95;;;8.60;99.90;;;7.05;100.00;100950.84;5000495;28;20492;-75
2023/02/03 04:10:38;;;;;;;10.00;5.35;;;8.60;99.90;;;7.00;100.00;100945.16;5007415;28;20041;-75
2023/02/03 04:13:05;;;;;;;10.63;5.82;;;8.60;99.90;;;7.07;100.00;100957.97;5008373;28;20202;-76
2023/02/03 04:15:32;;;;;;;13.90;6.05;;;8.60;99.90;;;7.11;100.00;100915.84;5007240;28;20042;-76
2023/02/03 04:18:00;;;;;;;11.88;5.93;;;8.60;99.90;;;7.12;100.00;100936.53;5005868;28;20516;-77
2023/02/03 04:20:27;;;;;;;14.80;6.13;;;8.60;99.90;;;7.09;100.00;100926.91;5007463;28;20038;-76
2023/02/03 04:22:53;;;;;;;13.10;6.25;;;8.60;99.90;;;7.09;100.00;100940.47;5003343;28;20176;-74
2023/02/03 04:25:20;;;;;;;13.43;6.50;;;8.60;99.90;;;7.14;100.00;100937.19;5007909;28;20030;-74
2023/02/03 04:27:45;;;;;;;11.20;6.00;;;8.70;99.90;;;7.16;100.00;100935.97;5005811;28;20444;-75
2023/02/03 04:30:12;;;;;;;11.50;6.28;;;8.70;99.90;;;7.17;100.00;100944.97;5007627;28;20030;-74
2023/02/03 04:32:38;;;;;;;14.15;6.35;;;8.70;99.90;;;7.17;100.00;100951.22;5012199;28;20049;-74
2023/02/03 04:35:06;;;;;;;13.45;6.30;;;8.70;99.90;;;7.18;100.00;100933.91;5014279;28;20041;-73
2023/02/03 04:37:32;;;;;;;14.15;6.75;;;8.70;99.90;;;7.18;100.00;100960.22;5013234;28;20381;-73
2023/02/03 04:39:58;;;;;;;12.70;6.38;;;8.70;99.90;;;7.11;100.00;100933.00;5011819;28;20046;-74
2023/02/03 04:42:25;;;;;;;11.25;6.28;;;8.60;99.90;;;7.14;100.00;100935.34;5013247;28;20033;-73
2023/02/03 04:44:50;;;;;;;13.65;6.32;;;8.60;99.90;;;7.13;100.00;100951.78;4995823;28;20033;-74
2023/02/03 04:47:18;;;;;;;14.32;6.75;;;8.60;99.90;;;7.14;100.00;100940.75;5007135;28;20031;-74
2023/02/03 04:49:44;;;;;;;14.87;6.43;;;8.70;99.90;;;7.10;100.00;100949.44;5014047;28;20123;-74
2023/02/03 04:52:10;;;;;;;12.05;6.85;;;8.60;99.90;;;7.10;100.00;100931.31;5011281;28;21032;-74
2023/02/03 04:54:37;;;;;;;11.75;7.13;;;8.60;99.90;;;7.09;100.00;100936.91;5009750;28;20397;-74
2023/02/03 04:57:03;;;;;;;14.25;6.88;;;8.60;99.90;;;7.08;100.00;100929.81;5015148;28;20504;-75
2023/02/03 04:59:29;;;;;;;13.75;7.28;;;8.60;99.90;;;7.09;100.00;100932.34;5011000;28;20524;-75
2023/02/03 05:01:54;;;;;;;10.93;6.47;;;8.60;99.90;;;7.08;100.00;100914.38;5012166;28;20037;-74
2023/02/03 05:04:20;;;;;;;13.25;6.90;;;8.60;99.90;;;7.11;100.00;100937.56;5011539;28;20046;-75
2023/02/03 05:06:46;;;;;;;13.32;6.50;;;8.60;99.90;;;7.15;100.00;100914.44;5013300;28;20033;-74
2023/02/03 05:09:12;;;;;;;11.52;6.50;;;8.70;99.90;;;7.17;100.00;100898.84;4996955;28;20034;-74
2023/02/03 05:11:37;;;;;;;15.68;6.45;;;8.70;99.90;;;7.13;100.00;100920.09;5014349;28;20056;-74
2023/02/03 05:14:03;;;;;;;11.45;6.20;;;8.70;99.90;;;7.14;100.00;100924.47;5011320;28;20042;-75
2023/02/03 05:16:29;;;;;;;12.38;6.50;;;8.60;99.90;;;7.14;100.00;100891.06;5014636;28;20092;-74
2023/02/03 05:18:55;;;;;;;12.45;6.40;;;8.70;99.90;;;7.16;100.00;100886.28;4999749;28;20540;-74
2023/02/03 05:21:21;;;;;;;12.48;6.50;;;8.70;99.90;;;7.16;100.00;100889.00;5001773;28;20445;-74
2023/02/03 05:23:46;;;;;;;12.77;6.88;;;8.70;99.90;;;7.18;100.00;100895.94;5011706;28;20041;-73
2023/02/03 05:26:12;;;;;;;8.48;5.22;;;8.70;99.90;;;7.18;100.00;100887.78;5002207;28;20027;-74
2023/02/03 05:28:38;;;;;;;11.93;5.60;;;8.70;99.90;;;7.19;100.00;100894.91;5005758;28;20050;-73
2023/02/03 05:31:04;;;;;;;11.95;6.13;;;8.70;99.90;;;7.13;100.00;100864.97;5010820;28;20030;-74
2023/02/03 05:33:31;;;;;;;14.68;6.70;;;8.70;99.90;;;7.16;100.00;100883.56;5001390;28;20045;-74
2023/02/03 05:35:57;;;;;;;10.60;6.23;;;8.70;99.90;;;7.23;100.00;100862.81;5009425;28;20039;-74
2023/02/03 05:38:23;;;;;;;11.45;5.30;;;8.70;99.90;;;7.14;100.00;100861.22;5000162;28;20071;-73
2023/02/03 05:43:37;;;;;;;12.20;5.80;;;8.70;99.90;;;7.14;100.00;100834.94;5001659;28;20050;-73
2023/02/03 05:46:05;;;;;;;10.57;5.13;;;8.60;99.90;;;7.14;100.00;100880.22;5003838;28;20046;-73
2023/02/03 05:48:31;;;;;;;11.43;5.20;;;8.70;99.90;;;7.12;100.00;100852.44;5007941;28;20046;-73
2023/02/03 05:50:58;;;;;;;9.57;5.55;;;8.60;99.90;;;7.10;100.00;100841.78;4995783;28;20517;-73
2023/02/03 05:53:26;;;;;;;11.05;5.70;;;8.60;99.90;;;7.05;100.00;100872.19;5006755;28;20045;-75
2023/02/03 05:55:52;;;;;;;15.20;6.93;;;8.60;99.90;;;7.04;100.00;100862.34;5012405;28;20042;-73
2023/02/03 05:58:21;;;;;;;11.98;5.53;;;8.60;99.90;;;7.00;100.00;100877.34;5009286;28;20025;-73
2023/02/03 06:00:46;;;;;;;12.82;6.40;;;8.50;99.90;;;6.95;100.00;100855.34;5019309;28;20049;-74
2023/02/03 06:03:12;;;;;;;13.43;6.00;;;8.50;99.90;;;6.88;100.00;100862.53;5001816;28;20133;-73
2023/02/03 06:05:40;;;;;;;12.80;6.35;;;8.40;99.90;;;6.87;100.00;100847.28;5009170;28;20034;-74
2023/02/03 06:08:07;;;;;;;15.93;6.30;;;8.40;99.90;;;6.85;100.00;100854.78;5010360;28;20140;-75
2023/02/03 06:10:33;;;;;;;12.50;6.55;;;8.40;99.90;;;6.83;100.00;100862.25;5007837;28;20049;-73
2023/02/03 06:12:59;;;;;;;12.75;6.32;;;8.40;99.90;;;6.75;100.00;100855.06;5004090;28;20158;-75
2023/02/03 06:15:24;;;;;;;14.45;6.13;;;8.40;99.90;;;6.77;100.00;100861.16;5009288;28;20050;-75
2023/02/03 06:17:50;;;;;;;12.45;5.47;;;8.30;99.90;;;6.78;100.00;100864.69;5006392;28;20038;-76
2023/02/03 06:20:19;;;;;;;11.07;5.97;;;8.30;99.90;;;6.83;100.00;100868.53;5006773;28;20052;-74
2023/02/03 06:22:45;;;;;;;10.73;6.20;;;8.40;99.90;;;6.80;100.00;100859.94;5007769;28;20042;-75
2023/02/03 06:25:13;;;;;;;10.43;5.75;;;8.30;99.90;;;6.83;100.00;100870.41;5006284;28;20037;-74
2023/02/03 06:27:38;;;;;;;;;;;8.40;99.90;;;6.74;100.00;100859.66;5009786;28;20559;-74
2023/02/03 06:30:05;;;;;;;11.07;6.47;;;8.30;99.90;;;6.68;100.00;100854.97;4990666;28;20008;-74
2023/02/03 06:32:30;;;;;;;11.18;6.63;;;8.20;99.90;;;6.58;100.00;100844.41;5004374;28;20071;-74
2023/02/03 06:34:56;;;;;;;17.45;7.30;;;8.20;99.90;;;6.46;100.00;100857.56;5007302;28;20038;-73
2023/02/03 06:37:22;;;;;;;14.55;7.40;;;8.00;99.90;;;6.40;100.00;100854.75;5008129;28;20037;-73
2023/02/03 06:39:47;;;;;;;12.38;6.68;;;7.90;99.90;;;6.38;100.00;100852.22;5011879;28;20049;-75
2023/02/03 06:42:14;;;;;;;15.40;6.97;;;7.90;99.90;;;6.37;100.00;100850.56;5011978;28;20045;-73
2023/02/03 06:44:39;;;;;;;14.45;7.22;;;7.90;99.90;;;6.38;100.00;100867.63;5004692;28;20052;-73
2023/02/03 06:47:05;;;;;;;13.88;6.60;;;7.90;99.90;;;6.36;100.00;100838.00;5011379;28;20050;-73
2023/02/03 06:49:31;;;;;;;10.70;6.68;;;7.90;99.90;;;6.36;100.00;100837.16;5005818;28;20045;-74
2023/02/03 06:51:57;;;;;;;12.63;7.85;;;7.90;99.90;;;6.30;100.00;100841.44;5009477;28;20106;-74
2023/02/03 06:54:22;;;;;;;12.20;7.47;;;7.80;99.90;;;6.30;100.00;100841.44;4997289;28;20518;-74
2023/02/03 06:56:48;;;;;;;12.32;6.93;;;7.80;99.90;;;6.27;100.00;100823.72;5009334;28;20049;-73
2023/02/03 06:59:14;;;;;;;13.00;7.38;;;7.80;99.90;;;6.24;100.00;100832.22;5010088;28;20033;-73
2023/02/03 07:01:39;;;;;;;16.65;7.50;;;7.80;99.90;;;6.19;100.00;100818.34;5009885;28;20121;-73
2023/02/03 07:04:05;;;;;;;12.73;7.78;;;7.70;99.90;;;6.18;100.00;100817.53;5009197;28;20500;-73
2023/02/03 07:06:32;;;;;;;11.90;6.93;;;7.70;99.90;;;6.17;100.00;100796.88;5010494;28;20034;-74
2023/02/03 07:09:04;;;;;;;11.50;7.43;;;7.70;99.90;;;6.16;100.00;100810.59;5010257;28;20472;-72
2023/02/03 07:11:31;;;;;;;16.05;8.02;;;7.70;99.90;;;6.19;100.00;100799.38;5009392;28;20042;-72
2023/02/03 07:13:57;;;;;;;19.15;7.85;;;7.70;99.90;;;6.14;100.00;100813.50;5005575;28;20034;-71
2023/02/03 07:16:23;;;;;;;16.52;8.27;;;7.70;99.90;;;6.11;100.00;100803.03;5009719;28;20046;-71
2023/02/03 07:18:49;;;;;;;14.63;7.57;;;7.70;99.90;;;6.12;100.00;100828.25;5008836;28;20045;-71
2023/02/03 07:21:15;;;;;;;13.57;8.15;;;7.70;99.90;;;6.16;100.00;100794.34;5010904;28;20030;-72
2023/02/03 07:23:41;;;;;;;11.88;7.55;;;7.70;99.90;;;6.15;100.00;100798.06;5008052;28;20037;-72
2023/02/03 07:26:09;;;;;;;12.55;7.05;;;7.70;99.90;;;6.16;100.00;100806.03;5003681;28;20396;-72
2023/02/03 07:28:36;;;;;;;;;;;7.70;99.90;;;6.18;100.00;100803.13;5001862;28;20061;-73
2023/02/03 07:31:03;;;;;;;9.43;6.72;;;7.70;99.90;;;6.24;100.00;100798.84;5023895;28;19921;-71
2023/02/03 07:33:30;;;;;;;10.73;6.60;;;7.70;99.90;;;6.19;100.00;100781.28;5010088;28;20030;-73
2023/02/03 07:35:58;;;;;;;12.25;7.07;;;7.70;99.90;;;6.23;100.00;100794.44;5002709;28;20108;-72
2023/02/03 07:38:26;;;;;;;10.98;6.63;;;7.80;99.90;;;6.29;100.00;100763.91;5003219;28;20253;-72
2023/02/03 07:40:53;;;;;;;;;;;7.80;99.90;;;6.26;100.00;100794.06;4993548;28;20091;-72
2023/02/03 07:43:18;;;;;;;10.02;5.65;;;7.80;99.90;;;6.29;100.00;100791.84;5002119;28;20012;-72
2023/02/03 07:45:44;;;;;;;9.77;5.90;;;7.80;99.90;;;6.28;100.00;100784.75;5008969;28;20145;-71
2023/02/03 07:48:11;;;;;;;8.80;5.57;;;7.80;99.90;;;6.30;100.00;100773.72;5005921;28;20041;-73
2023/02/03 07:50:38;;;;;;;10.15;5.68;;;7.80;99.90;;;6.30;100.00;100765.59;5013487;28;20061;-73
2023/02/03 07:53:05;;;;;;;7.97;5.35;;;7.80;99.90;;;6.31;100.00;100784.38;5010304;28;20057;-72
2023/02/03 07:55:30;;;;;;;7.78;5.57;;;7.80;99.90;;;6.39;100.00;100766.34;5009732;28;20030;-71
2023/02/03 07:57:57;;;;;;;11.65;5.43;;;7.90;99.90;;;6.42;100.00;100774.94;5007488;28;20064;-72
2023/02/03 08:00:24;;;;;;;8.32;5.03;;;7.90;99.90;;;6.41;100.00;100775.97;4999126;28;20057;-72
2023/02/03 08:02:50;;;;;;;9.30;5.23;;;7.90;99.90;;;6.47;100.00;100810.47;5006995;28;20493;-72
2023/02/03 08:05:17;;;;;;;7.93;5.43;;;8.00;99.90;;;6.48;100.00;100773.34;5006605;28;20042;-72
2023/02/03 08:07:44;;;;;;;9.68;5.40;;;8.00;99.90;;;6.51;100.00;100791.13;5008876;28;20049;-72
2023/02/03 08:10:12;;;;;;;9.15;5.38;;;8.00;99.90;;;6.53;100.00;100778.22;5008590;28;20042;-72
2023/02/03 08:12:38;;;;;;;7.93;5.10;;;8.00;99.90;;;6.58;100.00;100781.19;5000207;28;20117;-72
2023/02/03 08:15:05;;;;;;;7.25;5.00;;;8.10;99.90;;;6.67;100.00;100779.22;5001813;28;20125;-71
2023/02/03 08:17:32;;;;;;;8.77;4.82;;;8.10;99.90;;;6.71;100.00;100794.94;5009630;28;20033;-71
2023/02/03 08:19:58;;;;;;;7.50;4.40;;;8.20;99.90;;;6.73;100.00;100776.63;5008101;28;20033;-72
2023/02/03 08:22:24;;;;;;;10.77;4.88;;;8.20;99.90;;;6.80;100.00;100813.81;4998938;28;20334;-71
2023/02/03 08:24:50;;;;;;;7.95;5.03;;;8.30;99.90;;;6.83;100.00;100787.19;5010196;28;20046;-72
2023/02/03 08:27:20;;;;;;;7.78;4.68;;;8.30;99.90;;;6.87;100.00;100793.06;5000200;28;20038;-72
2023/02/03 08:29:46;;;;;;;7.65;5.07;;;8.40;99.90;;;6.92;100.00;100793.34;5009170;28;20094;-71
2023/02/03 08:32:16;;;;;;;10.32;4.90;;;8.40;99.90;;;6.98;100.00;100789.88;5009134;28;20037;-72
2023/02/03 08:34:42;;;;;;;10.85;4.70;;;8.50;99.90;;;7.00;100.00;100798.66;4999224;28;20482;-73
2023/02/03 08:37:12;;;;;;;12.02;5.57;;;8.50;99.90;;;7.07;100.00;100820.44;5008382;28;20045;-72
2023/02/03 08:39:38;;;;;;;9.07;5.30;;;8.60;99.90;;;7.03;100.00;100792.03;4996806;28;20117;-72
2023/02/03 08:42:05;;;;;;;8.32;5.38;;;8.60;99.90;;;7.10;100.00;100801.06;5007899;28;20367;-73
2023/02/03 08:44:31;;;;;;;9.07;5.45;;;8.60;99.90;;;7.08;100.00;100799.56;5007708;28;20104;-73
2023/02/03 08:46:59;;;;;;;11.45;5.40;;;8.60;99.90;;;7.03;100.00;100794.75;4998469;28;20038;-72
2023/02/03 08:49:28;;;;;;;9.85;5.00;;;8.60;99.90;;;7.02;100.00;100782.19;5007353;28;20041;-74
2023/02/03 08:51:57;;;;;;;10.02;5.18;;;8.50;99.90;;;7.06;100.00;100786.22;5006789;28;20049;-73
2023/02/03 08:54:23;;;;;;;11.35;5.25;;;8.60;99.90;;;7.13;100.00;100802.56;5003680;28;20038;-73
2023/02/03 08:56:50;;;;;;;9.00;5.53;;;8.60;99.90;;;7.14;100.00;100802.38;5004860;28;20037;-73
2023/02/03 08:59:16;;;;;;;11.80;6.80;;;8.70;99.90;;;6.99;100.00;100807.84;5006012;28;20049;-75
2023/02/03 09:01:44;;;;;;;12.60;6.38;;;8.60;99.90;;;6.86;100.00;100780.53;5007129;28;20381;-74
2023/02/03 09:04:11;;;;;;;;;;;8.40;99.90;;;6.81;100.00;100807.38;5003506;28;20049;-73
2023/02/03 09:06:38;;;;;;;12.07;6.07;;;8.30;99.90;;;6.70;100.00;100785.13;5001721;28;20278;-73
2023/02/03 09:09:04;;;;;;;13.75;7.00;;;8.20;99.90;;;6.62;100.00;100788.78;5002842;28;20397;-72
2023/02/03 09:11:30;;;;;;;17.75;8.50;;;8.20;99.90;;;6.58;100.00;100773.91;5008015;28;20034;-75
2023/02/03 09:13:56;;;;;;;14.52;7.97;;;8.20;99.90;;;6.66;100.00;100775.69;5004062;28;20045;-73
2023/02/03 09:16:24;;;;;;;14.00;7.88;;;8.20;99.90;;;6.66;100.00;100781.13;5009003;28;20030;-71
2023/02/03 09:18:50;;;;;;;18.93;7.50;;;8.20;99.90;;;6.70;100.00;100773.44;5005449;28;20042;-73
2023/02/03 09:21:16;;;;;;;15.68;7.43;;;8.20;99.90;;;6.75;100.00;100789.97;5004722;28;20298;-74
2023/02/03 09:23:44;;;;;;;14.18;6.85;;;8.20;99.90;;;6.86;100.00;100810.34;5011292;28;20501;-73
2023/02/03 09:26:13;;;;;;;12.50;6.30;;;8.40;99.90;;;6.87;100.00;100787.63;5012268;28;20477;-73
2023/02/03 09:28:39;;;;;;;12.43;5.95;;;8.40;99.90;;;6.96;100.00;100783.81;5009805;28;20034;-72
2023/02/03 09:31:09;;;;;;;12.38;5.90;;;8.40;99.90;;;7.00;100.00;100787.81;5005965;28;20022;-73
2023/02/03 09:33:35;;;;;;;13.38;5.20;;;8.50;99.90;;;7.07;100.00;100790.63;5004369;28;20428;-72
2023/02/03 09:36:02;;;;;;;13.02;6.13;;;8.50;99.90;;;7.07;100.00;100782.47;5005025;28;20026;-73
2023/02/03 09:38:28;;;;;;;12.45;5.90;;;8.60;99.90;;;7.00;100.00;100778.81;5006276;28;20030;-74
2023/02/03 09:41:09;;;;;;;11.25;5.05;;;8.50;99.90;;;6.98;100.00;100779.03;5008367;28;20034;-72
2023/02/03 09:44:24;;;;;;;13.13;6.00;;;8.50;99.90;;;6.98;100.00;100760.03;5009480;28;20037;-73
2023/02/03 09:47:01;;;;;;;12.93;5.47;;;8.50;99.90;;;6.95;100.00;100762.28;5008840;28;20136;-73
2023/02/03 09:49:43;;;;;;;18.02;5.50;;;8.40;99.90;;;6.95;100.00;100744.16;5006881;28;20035;-73
2023/02/03 09:52:38;;;;;;;13.10;5.07;;;8.50;99.90;;;6.92;100.00;100787.94;5025734;28;20042;-73
2023/02/03 09:55:16;;;;;;;13.40;5.00;;;8.40;99.90;;;6.89;100.00;100789.13;5001552;28;20034;-74
2023/02/03 09:57:54;;;;;;;12.90;5.28;;;8.40;99.90;;;6.92;100.00;100777.06;5005999;28;20034;-73
2023/02/03 10:00:29;;;;;;;10.90;4.72;;;8.40;99.90;;;6.88;100.00;100782.03;5002592;28;20038;-74
2023/02/03 10:03:37;;;;;;;13.35;4.80;;;8.40;99.90;;;6.88;100.00;100779.31;5010242;28;20053;-74
2023/02/03 10:06:27;;;;;;;14.88;5.30;;;8.40;99.90;;;6.87;100.00;100763.22;5008462;28;20069;-73
2023/02/03 10:09:18;;;;;;;12.30;4.65;;;8.40;99.90;;;6.86;100.00;100748.84;4996511;28;20038;-72
2023/02/03 10:12:10;;;;;;;17.92;5.75;;;8.40;99.90;;;6.92;100.00;100782.50;5011486;28;20034;-73
2023/02/03 10:15:21;;;;;;;14.30;4.15;;;8.40;99.90;;;7.01;100.00;100789.50;4994534;28;20385;-73
2023/02/03 10:17:59;;;;;;;14.18;4.43;;;8.50;99.90;;;6.97;100.00;100779.19;5011098;28;20092;-72
2023/02/03 10:20:46;;;;;;;13.70;4.13;;;8.50;99.90;;;6.93;100.00;100757.06;5011170;28;20398;-71
2023/02/03 10:23:21;;;;;;;14.18;4.55;;;8.50;99.90;;;6.91;100.00;100783.53;5005417;28;20141;-72
2023/02/03 10:25:57;;;;;;;12.10;4.38;;;8.40;99.90;;;6.88;100.00;100787.44;5011733;28;20501;-72
2023/02/03 10:28:29;;;;;;;12.93;3.67;;;8.40;99.90;;;6.85;100.00;100798.69;5006201;28;20465;-73
2023/02/03 10:31:05;;;;;;;13.52;3.17;;;8.40;99.90;;;6.87;100.00;100798.47;5004683;28;20042;-73